Time;durP1;ratioP1;P1;durP2;ratioP2;P2;SDS_P1;SDS_P2;PMS_P1;PMS_P2;Temp;Humidity;BMP_temperature;BMP_pressure;BME280_temperature;BME280_humidity;BME280_pressure;Samples;Min_cycle;Max_cycle;Signal;HPM_P1;HPM_P2
2021/12/07 05:38:32;;;;;;;;;5.00;2.25;;;;;6.41;72.97;100984.66;4960228;28;45272;-51
2021/12/07 05:40:58;;;;;;;;;2.75;2.75;;;;;6.29;73.50;100969.03;4952719;28;45470;-49
2021/12/07 05:43:24;;;;;;;;;5.00;5.00;;;;;6.26;72.79;100973.53;4940282;28;45538;-49
2021/12/07 05:45:49;;;;;;;;;5.00;2.00;;;;;6.14;73.91;100981.81;4940487;28;45401;-49
2021/12/07 05:48:15;;;;;;;;;2.75;2.50;;;;;6.02;74.15;100962.56;4940513;28;45403;-48
2021/12/07 05:50:41;;;;;;;;;9.25;4.00;;;;;6.06;74.15;100976.66;4940633;28;45442;-48
2021/12/07 05:53:08;;;;;;;;;6.50;3.00;;;;;6.07;73.86;100981.94;4940704;28;45433;-49
2021/12/07 05:55:35;;;;;;;;;3.00;3.00;;;;;6.01;73.89;100983.88;4940456;28;45441;-49
2021/12/07 05:58:00;;;;;;;;;8.25;4.50;;;;;5.95;74.28;100982.25;4940169;28;45349;-50
2021/12/07 06:00:28;;;;;;;;;2.75;2.75;;;;;5.86;74.66;101001.06;4942611;28;45495;-50
2021/12/07 06:02:57;;;;;;;;;3.00;3.00;;;;;5.89;74.54;100989.47;4942116;28;45411;-49
2021/12/07 06:05:25;;;;;;;;;6.75;4.25;;;;;5.88;74.53;100993.94;4937397;28;45363;-51
2021/12/07 06:07:51;;;;;;;;;5.50;5.00;;;;;5.88;75.15;100987.72;4943578;28;45199;-49
2021/12/07 06:10:17;;;;;;;;;9.00;3.00;;;;;5.90;74.60;100992.13;4943414;28;45251;-49
2021/12/07 06:12:42;;;;;;;;;4.50;3.00;;;;;5.95;74.61;100981.38;4943309;28;45241;-47
2021/12/07 06:15:09;;;;;;;;;5.25;5.00;;;;;5.96;74.46;100969.78;4943382;28;45876;-48
2021/12/07 06:17:34;;;;;;;;;9.25;5.75;;;;;6.04;74.53;100983.81;4943606;28;45494;-47
2021/12/07 06:20:00;;;;;;;;;7.50;5.50;;;;;6.04;74.15;100970.50;4943572;28;45319;-48
2021/12/07 06:22:25;;;;;;;;;8.75;7.00;;;;;6.06;74.06;100958.03;4943494;28;46246;-48
2021/12/07 06:24:51;;;;;;;;;9.00;6.00;;;;;5.99;74.48;100940.47;4943260;28;46171;-47
2021/12/07 06:27:17;;;;;;;;;12.25;5.50;;;;;6.12;73.68;100947.25;4943244;28;45436;-47
2021/12/07 06:29:43;;;;;;;;;9.75;7.00;;;;;6.11;73.71;100947.28;4943319;28;45265;-47
2021/12/07 06:32:09;;;;;;;;;5.50;5.50;;;;;6.10;73.91;100935.78;4943102;28;45290;-47
2021/12/07 06:34:35;;;;;;;;;6.50;6.50;;;;;6.17;73.85;100937.34;4943115;28;46171;-49
2021/12/07 06:37:02;;;;;;;;;8.00;7.50;;;;;6.24;73.46;100933.63;4943222;28;45395;-47
2021/12/07 06:39:27;;;;;;;;;8.50;6.25;;;;;6.21;73.30;100924.88;4943223;28;45177;-51
2021/12/07 06:41:53;;;;;;;;;5.00;5.00;;;;;6.32;73.17;100938.75;4942840;28;45220;-48
2021/12/07 06:44:18;;;;;;;;;5.50;4.00;;;;;6.17;73.15;100915.19;4942745;28;45221;-47
2021/12/07 06:46:47;;;;;;;;;8.00;5.00;;;;;6.22;73.50;100927.47;4943043;28;45358;-47
2021/12/07 06:49:13;;;;;;;;;6.50;6.00;;;;;6.12;73.74;100928.63;4943133;28;45318;-48
2021/12/07 06:51:38;;;;;;;;;5.75;5.00;;;;;6.11;73.67;100929.53;4943090;28;45316;-47
2021/12/07 06:54:04;;;;;;;;;8.00;6.50;;;;;6.10;74.08;100929.56;4942663;28;46732;-51
2021/12/07 06:56:29;;;;;;;;;6.75;4.50;;;;;6.02;73.54;100909.34;4943149;28;45268;-51
2021/12/07 06:58:55;;;;;;;;;6.75;6.75;;;;;5.99;74.05;100908.53;4941308;28;45362;-47
2021/12/07 07:01:20;;;;;;;;;9.75;6.50;;;;;6.04;73.72;100907.50;4942582;28;46116;-47
2021/12/07 07:03:45;;;;;;;;;10.00;8.50;;;;;6.06;73.86;100907.47;4934373;28;45490;-47
2021/12/07 07:06:11;;;;;;;;;8.25;8.25;;;;;6.12;73.53;100909.13;4943140;28;45191;-51
2021/12/07 07:08:36;;;;;;;;;9.25;8.00;;;;;6.05;73.91;100879.09;4942792;28;45243;-49
2021/12/07 07:11:03;;;;;;;;;10.00;10.00;;;;;6.15;73.25;100885.94;4940436;28;45391;-47
2021/12/07 07:13:29;;;;;;;;;9.25;6.00;;;;;6.13;73.22;100882.44;4941462;28;46298;-49
2021/12/07 07:15:54;;;;;;;;;10.50;10.00;;;;;6.15;73.57;100877.97;4942601;28;45288;-47
2021/12/07 07:18:19;;;;;;;;;10.75;9.75;;;;;6.15;73.34;100885.06;4942514;28;45318;-48
2021/12/07 07:20:44;;;;;;;;;11.00;7.75;;;;;6.15;73.61;100880.63;4942064;28;45886;-50
2021/12/07 07:23:10;;;;;;;;;11.50;11.50;;;;;6.06;74.02;100870.19;4942066;28;45443;-50
2021/12/07 07:25:35;;;;;;;;;9.50;9.50;;;;;6.08;74.00;100871.03;4942281;28;45315;-49
2021/12/07 07:28:01;;;;;;;;;7.50;7.50;;;;;6.14;73.94;100872.66;4942357;28;45660;-47
2021/12/07 07:30:27;;;;;;;;;12.00;10.00;;;;;6.12;74.28;100866.53;4942103;28;45340;-47
2021/12/07 07:32:52;;;;;;;;;17.25;10.00;;;;;6.10;74.31;100861.25;4942179;28;45277;-46
2021/12/07 07:35:20;;;;;;;;;15.00;13.75;;;;;6.07;74.35;100851.53;4942431;28;45247;-48
2021/12/07 07:37:46;;;;;;;;;23.75;13.75;;;;;6.10;74.86;100847.06;4942449;28;45463;-49
2021/12/07 07:40:16;;;;;;;;;15.50;11.00;;;;;6.04;74.77;100829.44;4942267;28;45586;-49
2021/12/07 07:42:41;;;;;;;;;15.00;10.75;;;;;6.12;74.89;100840.78;4941854;28;46016;-48
2021/12/07 07:45:07;;;;;;;;;15.25;14.00;;;;;6.19;74.40;100838.84;4942006;28;45486;-47
2021/12/07 07:47:33;;;;;;;;;19.00;16.00;;;;;6.20;74.58;100827.28;4942268;28;45281;-49
2021/12/07 07:49:58;;;;;;;;;27.25;20.00;;;;;6.24;74.33;100829.81;4942124;28;45260;-48
2021/12/07 07:52:24;;;;;;;;;21.50;18.00;;;;;6.31;73.89;100826.06;4941837;28;45325;-48
2021/12/07 07:54:49;;;;;;;;;16.75;14.00;;;;;6.32;73.86;100827.81;4942209;28;45243;-46
2021/12/07 07:57:14;;;;;;;;;21.50;12.75;;;;;6.37;73.71;100839.22;4942042;28;45282;-50
2021/12/07 07:59:40;;;;;;;;;20.25;15.25;;;;;6.35;73.51;100833.06;4941923;28;45467;-49
2021/12/07 08:02:07;;;;;;;;;22.50;17.75;;;;;6.26;73.86;100820.00;4941684;28;46771;-49
2021/12/07 08:04:32;;;;;;;;;23.50;16.00;;;;;6.22;73.79;100810.31;4933468;28;45232;-47
2021/12/07 08:06:58;;;;;;;;;24.75;19.75;;;;;6.25;73.72;100806.72;4942208;28;45248;-48
2021/12/07 08:09:23;;;;;;;;;26.00;19.75;;;;;6.17;74.18;100793.63;4941729;28;45569;-50
2021/12/07 08:11:48;;;;;;;;;19.00;17.00;;;;;6.24;74.75;100783.66;4941376;28;47275;-49
2021/12/07 08:14:15;;;;;;;;;20.50;18.50;;;;;6.31;74.66;100783.47;4941593;28;45277;-48
2021/12/07 08:16:41;;;;;;;;;21.00;17.75;;;;;6.26;74.27;100789.84;4941901;28;45276;-48
2021/12/07 08:19:06;;;;;;;;;20.75;17.25;;;;;6.26;74.29;100785.38;4941759;28;45319;-48
2021/12/07 08:21:32;;;;;;;;;25.00;18.00;;;;;6.29;73.99;100792.41;4941799;28;45365;-48
2021/12/07 08:23:57;;;;;;;;;21.50;16.25;;;;;6.28;74.33;100788.00;4941390;28;45344;-50
2021/12/07 08:26:24;;;;;;;;;18.75;15.00;;;;;6.38;74.03;100790.34;4941836;28;45243;-48
2021/12/07 08:28:55;;;;;;;;;15.00;14.25;;;;;6.43;73.70;100776.94;4941211;28;45570;-48
2021/12/07 08:31:22;;;;;;;;;16.00;12.75;;;;;6.44;73.18;100763.56;4941158;28;45351;-49
2021/12/07 08:33:47;;;;;;;;;18.25;15.00;;;;;6.40;72.58;100769.00;4941624;28;45442;-50
2021/12/07 08:36:13;;;;;;;;;22.50;15.25;;;;;6.34;73.23;100767.41;4941533;28;45318;-50
2021/12/07 08:38:38;;;;;;;;;19.50;14.00;;;;;6.32;73.24;100765.69;4941460;28;45275;-47
2021/12/07 08:41:04;;;;;;;;;16.50;15.25;;;;;6.39;72.87;100769.91;4941397;28;46095;-49
2021/12/07 08:43:32;;;;;;;;;20.75;16.00;;;;;6.38;72.81;100770.88;4941029;28;45419;-48
2021/12/07 08:46:00;;;;;;;;;16.25;13.75;;;;;6.43;73.25;100764.47;4941307;28;45331;-50
2021/12/07 08:48:26;;;;;;;;;21.50;14.75;;;;;6.40;72.66;100756.56;4941321;28;45387;-46
2021/12/07 08:50:53;;;;;;;;;13.25;11.00;;;;;6.39;72.45;100765.47;4940980;28;45339;-51
2021/12/07 08:53:21;;;;;;;;;15.50;13.50;;;;;6.37;73.06;100767.34;4941201;28;45414;-48
2021/12/07 09:01:19;;;;;;;;;11.00;11.00;;;;;6.45;73.05;100730.69;4940772;28;45290;-50
2021/12/07 09:03:46;;;;;;;;;15.50;13.00;;;;;6.42;73.02;100720.13;4932768;28;45371;-48
2021/12/07 09:06:12;;;;;;;;;13.75;9.25;;;;;6.52;72.71;100707.41;4928579;28;45415;-50
2021/12/07 09:08:40;;;;;;;;;11.25;10.50;;;;;6.52;72.96;100695.88;4941132;28;45631;-49
2021/12/07 09:11:06;;;;;;;;;14.50;9.75;;;;;6.52;73.48;100694.09;4940894;28;46161;-48
2021/12/07 09:13:31;;;;;;;;;15.25;12.00;;;;;6.47;73.29;100680.03;4940720;28;45272;-49
2021/12/07 09:15:57;;;;;;;;;21.00;12.00;;;;;6.36;73.74;100674.19;4941085;28;45216;-49
2021/12/07 09:18:24;;;;;;;;;15.00;13.50;;;;;6.36;74.67;100679.50;4940966;28;45462;-47
2021/12/07 09:20:50;;;;;;;;;16.00;15.00;;;;;6.28;74.85;100671.75;4940741;28;45205;-50
2021/12/07 09:23:15;;;;;;;;;14.25;12.00;;;;;6.33;74.35;100655.63;4940803;28;45506;-52
2021/12/07 09:25:41;;;;;;;;;15.75;14.50;;;;;6.40;74.58;100652.72;4940929;28;45242;-49
2021/12/07 09:28:10;;;;;;;;;14.25;10.25;;;;;6.35;74.05;100648.47;4940378;28;45623;-49
2021/12/07 09:30:36;;;;;;;;;12.75;10.50;;;;;6.34;74.34;100654.72;4940300;28;45215;-48
2021/12/07 09:33:01;;;;;;;;;16.75;13.75;;;;;6.23;74.14;100648.81;4940669;28;45232;-47
2021/12/07 09:35:27;;;;;;;;;12.75;11.25;;;;;6.10;74.57;100650.13;4943348;28;45508;-48
2021/12/07 09:37:54;;;;;;;;;11.25;10.75;;;;;6.05;74.28;100647.56;4944030;28;45325;-48
2021/12/07 09:40:23;;;;;;;;;11.75;10.25;;;;;6.09;74.28;100662.53;4943978;28;46284;-48
2021/12/07 09:42:50;;;;;;;;;9.75;7.75;;;;;6.00;74.80;100653.03;4943680;28;45378;-47
2021/12/07 09:45:17;;;;;;;;;14.25;10.25;;;;;6.03;74.38;100649.44;4944085;28;45236;-47
2021/12/07 09:47:43;;;;;;;;;15.00;9.25;;;;;6.07;74.51;100667.03;4943743;28;45953;-48
2021/12/07 09:50:11;;;;;;;;;11.00;10.25;;;;;6.03;74.91;100647.63;4943808;28;46386;-48
2021/12/07 09:52:37;;;;;;;;;9.75;9.75;;;;;6.05;74.72;100637.78;4943937;28;45362;-50
2021/12/07 09:55:03;;;;;;;;;13.50;12.50;;;;;6.14;75.28;100631.34;4944074;28;45316;-49
2021/12/07 09:57:29;;;;;;;;;12.00;10.00;;;;;6.16;74.64;100634.81;4943582;28;45478;-51
2021/12/07 09:59:54;;;;;;;;;16.25;11.50;;;;;6.20;75.20;100641.81;4943652;28;45327;-48
2021/12/07 10:02:19;;;;;;;;;13.50;10.00;;;;;6.19;75.02;100644.53;4943404;28;45398;-47
2021/12/07 10:04:45;;;;;;;;;20.00;11.50;;;;;6.22;75.18;100647.94;4935898;28;45434;-47
2021/12/07 10:07:11;;;;;;;;;8.25;8.25;;;;;6.30;75.28;100653.91;4943607;28;45570;-49
2021/12/07 10:09:37;;;;;;;;;17.50;13.25;;;;;6.36;74.96;100647.56;4943430;28;46353;-47
2021/12/07 10:12:06;;;;;;;;;13.50;12.00;;;;;6.41;74.65;100635.84;4943250;28;45491;-48
2021/12/07 10:14:43;;;;;;;;;17.75;12.00;;;;;6.45;75.45;100613.53;4943720;28;45349;-49
2021/12/07 10:17:10;;;;;;;;;19.00;14.00;;;;;6.51;75.09;100603.59;4943303;28;45446;-50
2021/12/07 10:19:42;;;;;;;;;16.50;13.75;;;;;6.55;75.27;100607.91;4943460;28;45198;-47
2021/12/07 10:22:13;;;;;;;;;13.25;12.50;;;;;6.58;75.14;100603.34;4943480;28;45430;-49
2021/12/07 10:24:45;;;;;;;;;8.00;8.00;;;;;6.52;75.40;100589.38;4943446;28;45240;-46
2021/12/07 10:27:10;;;;;;;;;21.75;14.25;;;;;6.47;75.52;100560.19;4942977;28;45943;-47
2021/12/07 10:29:39;;;;;;;;;15.25;14.75;;;;;6.61;75.94;100562.44;4943153;28;46126;-50
2021/12/07 10:32:07;;;;;;;;;18.00;16.25;;;;;6.60;75.77;100560.69;4930018;28;45407;-48
2021/12/07 10:34:36;;;;;;;;;19.75;15.50;;;;;6.65;75.77;100556.94;4943358;28;45442;-50
2021/12/07 10:37:11;;;;;;;;;17.50;14.50;;;;;6.72;75.27;100550.50;4943225;28;45351;-50
2021/12/07 10:39:39;;;;;;;;;14.75;13.75;;;;;6.74;75.25;100524.66;4943169;28;45516;-46
2021/12/07 10:42:09;;;;;;;;;15.50;15.50;;;;;6.79;75.63;100525.41;4943012;28;45180;-48
2021/12/07 10:44:38;;;;;;;;;17.75;14.00;;;;;6.84;75.71;100523.44;4943077;28;45195;-48
2021/12/07 10:47:08;;;;;;;;;15.50;13.00;;;;;6.75;76.28;100509.56;4942073;28;45165;-50
2021/12/07 10:49:43;;;;;;;;;14.75;12.25;;;;;6.80;76.13;100503.16;4943066;28;46026;-50
2021/12/07 10:52:13;;;;;;;;;21.00;12.00;;;;;6.87;75.74;100490.50;4943056;28;45403;-49
2021/12/07 10:54:49;;;;;;;;;15.00;13.25;;;;;6.95;75.73;100471.56;4942972;28;45419;-48
2021/12/07 10:57:44;;;;;;;;;23.25;16.50;;;;;6.90;76.02;100446.88;4942768;28;45279;-49
2021/12/07 11:00:12;;;;;;;;;23.25;16.25;;;;;6.99;75.84;100458.06;4942626;28;46256;-48
2021/12/07 11:02:41;;;;;;;;;17.00;17.00;;;;;7.00;76.32;100441.16;4942566;28;45423;-48
2021/12/07 11:05:10;;;;;;;;;17.00;15.00;;;;;6.99;76.11;100438.53;4934075;28;45304;-50
2021/12/07 11:07:37;;;;;;;;;16.50;15.50;;;;;6.97;76.46;100433.28;4942538;28;45502;-46
2021/12/07 11:10:21;;;;;;;;;15.75;13.25;;;;;7.02;76.10;100417.13;4942488;28;46363;-47
2021/12/07 11:13:00;;;;;;;;;17.75;15.00;;;;;6.98;76.12;100399.50;4942362;28;45406;-47
2021/12/07 11:15:30;;;;;;;;;26.50;17.00;;;;;7.11;76.63;100393.66;4942662;28;45259;-51
2021/12/07 11:18:08;;;;;;;;;22.25;14.50;;;;;7.09;76.85;100379.53;4942486;28;45393;-49
2021/12/07 11:20:34;;;;;;;;;17.00;13.75;;;;;7.14;75.95;100374.03;4942309;28;47052;-47
2021/12/07 11:23:17;;;;;;;;;20.00;13.25;;;;;7.18;76.12;100357.84;4942790;28;45399;-49
2021/12/07 11:31:32;;;;;;;;;17.25;9.75;;;;;7.38;75.52;100319.75;4942038;28;45638;-49
2021/12/07 11:34:10;;;;;;;;;10.75;9.25;;;;;7.48;75.56;100315.81;4942222;28;45402;-49
2021/12/07 11:36:53;;;;;;;;;18.00;9.00;;;;;7.52;75.04;100296.06;4942333;28;45252;-47
2021/12/07 11:39:21;;;;;;;;;10.75;8.75;;;;;7.57;74.50;100294.06;4942331;28;45440;-50
2021/12/07 11:41:48;;;;;;;;;8.25;7.00;;;;;7.62;74.81;100279.69;4941857;28;46424;-50
2021/12/07 11:44:14;;;;;;;;;9.00;7.25;;;;;7.58;74.61;100273.59;4940828;28;45320;-50
2021/12/07 11:46:48;;;;;;;;;12.00;8.50;;;;;7.69;74.28;100274.03;4942043;28;45256;-48
2021/12/07 11:49:15;;;;;;;;;8.00;5.50;;;;;7.75;74.48;100259.56;4942075;28;45779;-48
2021/12/07 11:51:44;;;;;;;;;13.75;7.00;;;;;7.78;74.50;100244.28;4940646;28;47104;-50
2021/12/07 11:54:12;;;;;;;;;8.00;5.75;;;;;7.89;74.06;100241.19;4946437;28;45465;-47
2021/12/07 11:56:38;;;;;;;;;8.75;5.50;;;;;7.94;73.68;100237.38;4948498;28;45266;-50
2021/12/07 11:59:04;;;;;;;;;11.50;7.00;;;;;7.97;73.88;100236.38;4950807;28;45363;-51
2021/12/07 12:01:29;;;;;;;;;10.75;8.75;;;;;7.93;73.12;100208.06;4949312;28;49425;-47
2021/12/07 12:03:55;;;;;;;;;4.50;4.50;;;;;7.96;73.52;100207.94;4946435;28;45406;-48
2021/12/07 12:06:20;;;;;;;;;9.00;7.00;;;;;7.88;73.71;100188.72;4949765;28;45477;-49
2021/12/07 12:08:46;;;;;;;;;6.75;6.00;;;;;7.92;73.34;100196.53;4948340;28;45543;-52
2021/12/07 12:11:44;;;;;;;;;8.75;5.50;;;;;7.88;73.79;100180.72;4946005;28;46128;-48
2021/12/07 12:14:40;;;;;;;;;11.25;7.00;;;;;7.98;73.11;100174.06;4941365;28;45397;-48
2021/12/07 12:17:06;;;;;;;;;12.75;6.75;;;;;8.03;73.21;100164.03;4941474;28;45477;-48
2021/12/07 12:19:57;;;;;;;;;7.00;6.50;;;;;8.07;72.94;100156.75;4941697;28;45269;-49
2021/12/07 12:22:42;;;;;;;;;6.50;6.50;;;;;8.13;73.28;100145.78;4941676;28;45455;-48
2021/12/07 12:25:12;;;;;;;;;5.75;5.75;;;;;8.14;73.01;100151.06;4941586;28;45333;-51
2021/12/07 12:27:39;;;;;;;;;8.00;7.75;;;;;8.10;73.19;100137.91;4941823;28;45343;-49
2021/12/07 12:30:15;;;;;;;;;6.75;3.00;;;;;8.10;73.42;100121.91;4941076;28;45553;-49
2021/12/07 12:32:45;;;;;;;;;12.75;4.50;;;;;8.14;72.70;100107.50;4941661;28;45401;-48
2021/12/07 12:35:13;;;;;;;;;6.25;6.25;;;;;8.14;72.99;100102.16;4940887;28;45245;-48
2021/12/07 12:37:46;;;;;;;;;8.25;6.00;;;;;8.12;72.82;100078.19;4941654;28;45260;-49
2021/12/07 12:40:30;;;;;;;;;4.25;4.25;;;;;8.13;73.09;100074.59;4941012;28;45442;-47
2021/12/07 12:42:57;;;;;;;;;7.00;3.25;;;;;8.10;72.73;100058.69;4940904;28;45351;-50
2021/12/07 12:45:37;;;;;;;;;2.50;2.25;;;;;8.19;73.40;100038.72;4941124;28;45185;-48
2021/12/07 12:48:18;;;;;;;;;6.50;5.00;;;;;8.25;73.11;100025.09;4941332;28;45319;-48
2021/12/07 12:50:43;;;;;;;;;9.50;6.50;;;;;8.26;72.57;100006.28;4941085;28;46157;-49
2021/12/07 12:53:23;;;;;;;;;7.00;5.00;;;;;8.25;72.65;100003.72;4940864;28;45279;-48
2021/12/07 12:55:53;;;;;;;;;6.25;3.75;;;;;8.25;72.53;99988.53;4940884;28;45504;-52
2021/12/07 12:58:38;;;;;;;;;11.50;4.00;;;;;8.31;72.32;99979.41;4941018;28;45251;-47
2021/12/07 13:01:15;;;;;;;;;3.50;3.25;;;;;8.38;71.92;99994.19;4940678;28;45496;-50
2021/12/07 13:03:43;;;;;;;;;6.25;4.50;;;;;8.33;71.96;99993.56;4933001;28;46167;-50
2021/12/07 13:06:15;;;;;;;;;6.50;3.00;;;;;8.28;71.95;99979.53;4940295;28;45329;-49
2021/12/07 13:09:08;;;;;;;;;6.00;4.00;;;;;8.33;71.94;99996.25;4940258;28;45362;-48
2021/12/07 13:11:41;;;;;;;;;6.00;3.00;;;;;8.35;71.67;99973.84;4936315;28;46058;-49
2021/12/07 13:14:28;;;;;;;;;4.00;3.00;;;;;8.34;71.96;99965.91;4940526;28;45346;-52
2021/12/07 13:17:18;;;;;;;;;3.50;3.50;;;;;8.30;71.97;99959.81;4940487;28;45177;-49
2021/12/07 13:20:02;;;;;;;;;5.75;2.50;;;;;8.39;71.45;99966.56;4940799;28;45272;-50
2021/12/07 13:22:56;;;;;;;;;4.75;2.00;;;;;8.37;71.56;99967.56;4940803;28;45295;-49
2021/12/07 13:25:31;;;;;;;;;4.00;3.00;;;;;8.39;71.92;99963.88;4939122;28;45375;-50
2021/12/07 13:28:02;;;;;;;;;6.75;5.00;;;;;8.43;71.92;99943.22;4940465;28;45262;-51
2021/12/07 13:30:49;;;;;;;;;6.50;3.00;;;;;8.42;71.51;99954.88;4940408;28;45422;-50
2021/12/07 13:33:29;;;;;;;;;7.25;4.00;;;;;8.36;71.68;99931.97;4940440;28;46553;-49
2021/12/07 13:35:54;;;;;;;;;7.75;6.00;;;;;8.43;71.66;99959.25;4940716;28;45279;-49
2021/12/07 13:38:26;;;;;;;;;6.00;6.00;;;;;8.41;71.58;99942.44;4940536;28;45323;-52
2021/12/07 13:41:14;;;;;;;;;7.50;5.25;;;;;8.41;71.72;99945.97;4941155;28;45279;-50
2021/12/07 13:43:44;;;;;;;;;6.00;6.00;;;;;8.45;71.86;99947.53;4940219;28;45318;-50
2021/12/07 13:46:25;;;;;;;;;7.25;5.75;;;;;8.50;71.89;99926.84;4940172;28;45591;-48
2021/12/07 13:49:01;;;;;;;;;6.75;5.75;;;;;8.54;71.44;99901.69;4940434;28;45255;-49
2021/12/07 13:51:28;;;;;;;;;6.00;3.00;;;;;8.56;71.30;99883.75;4940373;28;45244;-48
2021/12/07 13:53:53;;;;;;;;;5.00;3.25;;;;;8.58;70.72;99878.34;4940276;28;45243;-48
2021/12/07 13:56:21;;;;;;;;;7.25;5.00;;;;;8.51;70.61;99887.59;4940002;28;45369;-47
2021/12/07 13:58:51;;;;;;;;;4.75;3.75;;;;;8.61;70.32;99902.22;4939927;28;45300;-48
2021/12/07 14:01:17;;;;;;;;;11.25;3.25;;;;;8.63;70.95;99892.31;4940209;28;45173;-49
2021/12/07 14:03:43;;;;;;;;;7.00;7.00;;;;;8.62;70.76;99885.25;4932389;28;45252;-47
2021/12/07 14:06:09;;;;;;;;;7.00;3.50;;;;;8.70;70.35;99894.59;4940225;28;46089;-48
2021/12/07 14:08:34;;;;;;;;;9.00;7.00;;;;;8.75;70.01;99889.03;4940330;28;45366;-48
2021/12/07 14:10:59;;;;;;;;;6.00;3.00;;;;;8.74;70.15;99892.66;4940215;28;45258;-50
2021/12/07 14:13:25;;;;;;;;;6.50;3.25;;;;;8.72;70.17;99879.34;4940073;28;45352;-51
2021/12/07 14:15:51;;;;;;;;;8.75;4.00;;;;;8.76;70.01;99873.88;4939975;28;45941;-50
2021/12/07 14:18:23;;;;;;;;;10.75;7.00;;;;;8.83;69.76;99875.25;4939994;28;45353;-51
2021/12/07 14:20:57;;;;;;;;;8.75;3.75;;;;;8.86;69.39;99872.41;4941398;28;45368;-47
2021/12/07 14:23:26;;;;;;;;;6.50;3.25;;;;;8.89;69.45;99857.09;4943088;28;45784;-48
2021/12/07 14:26:17;;;;;;;;;4.00;2.75;;;;;8.89;69.42;99845.53;4943520;28;45406;-50
2021/12/07 14:28:50;;;;;;;;;4.00;3.75;;;;;8.70;69.45;99819.78;4938181;28;45546;-48
2021/12/07 14:31:16;;;;;;;;;8.25;6.00;;;;;8.83;69.85;99829.84;4943115;28;45375;-49
2021/12/07 14:33:54;;;;;;;;;3.75;3.75;;;;;8.81;70.10;99815.69;4943336;28;45269;-48
2021/12/07 14:36:41;;;;;;;;;5.50;4.00;;;;;8.81;69.39;99792.50;4943130;28;45337;-49
2021/12/07 14:39:19;;;;;;;;;7.25;4.00;;;;;8.86;69.87;99792.22;4943194;28;45377;-49
2021/12/07 14:41:51;;;;;;;;;4.00;4.00;;;;;8.85;69.58;99780.66;4942997;28;45343;-49
2021/12/07 14:44:19;;;;;;;;;6.00;2.75;;;;;8.92;69.40;99767.88;4942932;28;45362;-48
2021/12/07 14:46:46;;;;;;;;;4.75;3.00;;;;;8.95;69.16;99746.28;4942831;28;45411;-50
2021/12/07 14:49:13;;;;;;;;;8.50;5.50;;;;;8.98;69.42;99728.28;4942998;28;45306;-49
2021/12/07 14:51:40;;;;;;;;;8.00;3.00;;;;;9.03;69.04;99722.66;4943146;28;45410;-49
2021/12/07 14:54:06;;;;;;;;;3.25;3.25;;;;;8.98;68.42;99720.25;4942741;28;45641;-50
2021/12/07 14:56:34;;;;;;;;;3.75;2.50;;;;;9.01;68.73;99709.41;4942664;28;45334;-48
2021/12/07 14:59:05;;;;;;;;;9.00;3.00;;;;;9.02;68.70;99696.88;4942425;28;45335;-48
2021/12/07 15:01:34;;;;;;;;;7.25;2.75;;;;;8.99;68.55;99692.59;4942785;28;45278;-48
2021/12/07 15:04:03;;;;;;;;;3.75;3.00;;;;;8.96;69.12;99684.72;4935149;28;46486;-50
2021/12/07 15:06:33;;;;;;;;;6.50;5.00;;;;;8.94;68.57;99672.38;4952193;28;47679;-49
2021/12/07 15:09:01;;;;;;;;;4.50;3.00;;;;;8.91;68.42;99664.56;4945319;28;45366;-49
2021/12/07 15:11:26;;;;;;;;;2.25;2.25;;;;;8.98;67.93;99652.56;4942502;28;45305;-47
2021/12/07 15:13:52;;;;;;;;;6.75;3.00;;;;;8.91;68.37;99640.50;4942468;28;45367;-50
2021/12/07 15:16:18;;;;;;;;;5.00;2.25;;;;;9.00;68.27;99638.19;4942258;28;46116;-48
2021/12/07 15:18:47;;;;;;;;;6.00;3.50;;;;;8.98;67.55;99626.72;4942391;28;45329;-49
2021/12/07 15:21:21;;;;;;;;;6.00;4.00;;;;;8.99;67.69;99635.59;4942410;28;45276;-47
2021/12/07 15:23:52;;;;;;;;;5.00;3.00;;;;;8.91;67.44;99620.00;4942227;28;45451;-48
2021/12/07 15:26:21;;;;;;;;;7.50;2.50;;;;;8.96;67.58;99606.34;4942386;28;45220;-52
2021/12/07 15:29:04;;;;;;;;;2.25;2.00;;;;;9.00;67.54;99603.44;4942467;28;45394;-49
2021/12/07 15:31:36;;;;;;;;;7.00;3.25;;;;;8.99;66.47;99587.47;4941893;28;45249;-47
2021/12/07 15:34:03;;;;;;;;;11.00;3.25;;;;;8.94;66.47;99563.66;4941665;28;45328;-48
2021/12/07 15:36:31;;;;;;;;;4.75;3.75;;;;;9.01;66.38;99561.53;4942185;28;46329;-47
2021/12/07 15:39:11;;;;;;;;;4.00;3.75;;;;;9.03;66.28;99551.56;4942109;28;45343;-47
2021/12/07 15:41:44;;;;;;;;;3.00;3.00;;;;;9.03;66.27;99536.41;4942472;28;46125;-52
2021/12/07 15:44:10;;;;;;;;;5.25;3.75;;;;;9.02;65.85;99526.66;4942105;28;45481;-48
2021/12/07 15:46:45;;;;;;;;;5.75;3.00;;;;;9.05;65.62;99518.47;4941875;28;46114;-47
2021/12/07 15:49:10;;;;;;;;;2.00;2.00;;;;;9.07;65.48;99507.69;4942087;28;45261;-49
2021/12/07 15:51:46;;;;;;;;;5.75;3.25;;;;;9.01;65.07;99490.22;4942123;28;45692;-51
2021/12/07 15:54:11;;;;;;;;;5.50;3.00;;;;;9.03;64.91;99490.94;4941715;28;45245;-50
2021/12/07 15:56:37;;;;;;;;;2.50;2.00;;;;;9.04;65.54;99473.09;4941979;28;45310;-48
2021/12/07 15:59:11;;;;;;;;;2.75;2.00;;;;;9.01;65.59;99468.81;4941982;28;45162;-48
2021/12/07 16:01:37;;;;;;;;;10.00;3.00;;;;;9.02;65.90;99464.31;4941840;28;45312;-48
2021/12/07 16:04:03;;;;;;;;;3.25;2.00;;;;;9.02;66.81;99448.25;4933745;28;45186;-48
2021/12/07 16:06:28;;;;;;;;;2.00;1.25;;;;;8.96;66.75;99433.47;4941749;28;46139;-51
2021/12/07 16:08:55;;;;;;;;;3.50;2.00;;;;;8.95;66.95;99433.56;4941682;28;45248;-51
2021/12/07 16:11:23;;;;;;;;;4.00;3.00;;;;;8.83;67.31;99416.47;4941651;28;45216;-48
2021/12/07 16:13:52;;;;;;;;;3.25;1.00;;;;;8.80;68.29;99413.09;4941666;28;45443;-50
2021/12/07 16:16:21;;;;;;;;;5.50;2.25;;;;;8.76;68.89;99399.09;4941442;28;46217;-48
2021/12/07 16:18:47;;;;;;;;;3.25;3.00;;;;;8.72;69.00;99406.41;4941435;28;45338;-50
2021/12/07 16:21:14;;;;;;;;;6.00;3.25;;;;;8.69;69.43;99395.03;4941738;28;45335;-48
2021/12/07 16:23:46;;;;;;;;;3.25;3.00;;;;;8.64;69.81;99376.63;4941314;28;45442;-49
2021/12/07 16:26:12;;;;;;;;;4.00;2.00;;;;;8.72;70.28;99373.47;4941453;28;46160;-48
2021/12/07 16:28:47;;;;;;;;;4.00;3.00;;;;;8.68;69.97;99374.59;4941050;28;45442;-48
2021/12/07 16:31:15;;;;;;;;;2.00;2.00;;;;;8.63;70.20;99374.03;4941429;28;45336;-47
2021/12/07 16:33:41;;;;;;;;;5.75;2.25;;;;;8.59;70.69;99359.16;4941350;28;46366;-49
2021/12/07 16:36:08;;;;;;;;;6.00;2.00;;;;;8.54;70.67;99356.75;4941298;28;46022;-49
2021/12/07 16:38:35;;;;;;;;;5.00;2.00;;;;;8.49;71.07;99336.59;4941412;28;45201;-47
2021/12/07 16:41:00;;;;;;;;;2.75;2.75;;;;;8.48;71.81;99318.88;4941506;28;45397;-51
2021/12/07 16:43:26;;;;;;;;;2.50;2.25;;;;;8.41;71.82;99294.34;4940337;28;45462;-48
2021/12/07 16:45:51;;;;;;;;;2.50;2.00;;;;;8.53;72.01;99288.25;4940430;28;46162;-50
2021/12/07 16:48:17;;;;;;;;;6.50;4.00;;;;;8.47;71.56;99239.69;4941125;28;45388;-47
2021/12/07 16:50:42;;;;;;;;;4.00;2.50;;;;;8.48;71.52;99186.19;4939528;28;45448;-51
2021/12/07 16:53:08;;;;;;;;;6.75;3.50;;;;;8.48;72.93;99124.75;4940829;28;46307;-50
2021/12/07 16:55:35;;;;;;;;;5.00;2.00;;;;;8.51;72.51;99057.78;4940810;28;46150;-49
2021/12/07 16:58:02;;;;;;;;;2.75;1.75;;;;;8.53;71.98;99045.19;4940961;28;45264;-49
2021/12/07 17:00:31;;;;;;;;;1.50;1.50;;;;;8.51;71.83;99107.66;4940945;28;45395;-48
2021/12/07 17:02:57;;;;;;;;;2.25;0.00;;;;;8.51;71.96;99118.34;4939107;28;46161;-48
2021/12/07 17:05:26;;;;;;;;;3.00;3.00;;;;;8.56;71.21;99103.75;4935228;28;46589;-49
2021/12/07 17:07:52;;;;;;;;;5.25;2.00;;;;;8.51;70.92;99088.97;4941075;28;45179;-48
2021/12/07 17:10:22;;;;;;;;;3.25;1.75;;;;;8.48;70.50;99108.75;4941117;28;45262;-47
2021/12/07 17:12:48;;;;;;;;;2.75;2.75;;;;;8.47;70.85;99138.19;4940626;28;45448;-48
2021/12/07 17:15:14;;;;;;;;;2.50;2.50;;;;;8.52;70.70;99168.13;4940659;28;45514;-47
2021/12/07 17:17:41;;;;;;;;;3.25;2.00;;;;;8.44;70.41;99163.28;4940951;28;45343;-48
2021/12/07 17:20:09;;;;;;;;;1.75;1.75;;;;;8.46;71.08;99177.41;4940883;28;45324;-49
2021/12/07 17:22:35;;;;;;;;;3.25;2.00;;;;;8.48;70.76;99170.16;4940737;28;45808;-47
2021/12/07 17:25:01;;;;;;;;;8.00;2.50;;;;;8.50;70.46;99157.56;4940509;28;45370;-49
2021/12/07 17:27:26;;;;;;;;;2.50;2.25;;;;;8.44;70.19;99151.75;4940501;28;45323;-48
2021/12/07 17:29:53;;;;;;;;;6.25;2.25;;;;;8.40;70.62;99151.09;4940795;28;45339;-52